Time;durP1;ratioP1;P1;durP2;ratioP2;P2;SDS_P1;SDS_P2;PMS_P1;PMS_P2;Temp;Humidity;BMP_temperature;BMP_pressure;BME280_temperature;BME280_humidity;BME280_pressure;Samples;Min_cycle;Max_cycle;Signal;HPM_P1;HPM_P2
2022/07/18 00:00:02;;;;;;;0.00;0.00;;;24.20;40.40;;;;;;5036612;28;20479;-74
2022/07/18 00:02:28;;;;;;;1.55;0.40;;;24.10;41.10;;;;;;5019268;28;20032;-74
2022/07/18 00:04:54;;;;;;;0.00;0.00;;;24.10;40.70;;;;;;5036313;28;20025;-74
2022/07/18 00:07:20;;;;;;;0.00;0.00;;;24.20;40.20;;;;;;5046261;28;20027;-75
2022/07/18 00:09:46;;;;;;;0.65;0.65;;;24.40;39.60;;;;;;5056378;28;20380;-75
2022/07/18 00:12:15;;;;;;;0.00;0.00;;;24.40;39.80;;;;;;5054168;28;20371;-75
2022/07/18 00:14:42;;;;;;;0.00;0.00;;;24.40;39.90;;;;;;5056269;28;20378;-74
2022/07/18 00:17:08;;;;;;;0.00;0.00;;;24.60;40.20;;;;;;5038146;28;20025;-74
2022/07/18 00:19:35;;;;;;;0.00;0.00;;;24.70;40.70;;;;;;5038278;28;20056;-74
2022/07/18 00:22:02;;;;;;;4.07;3.65;;;24.80;40.60;;;;;;5056070;28;20017;-74
2022/07/18 00:24:31;;;;;;;0.00;0.00;;;24.80;40.90;;;;;;5056070;28;20028;-74
2022/07/18 00:26:59;;;;;;;0.00;0.00;;;24.60;41.80;;;;;;5038266;28;20068;-74
2022/07/18 00:29:25;;;;;;;0.00;0.00;;;24.80;42.30;;;;;;5035690;28;20033;-74
2022/07/18 00:31:51;;;;;;;0.00;0.00;;;25.00;40.80;;;;;;5033701;28;20083;-74
2022/07/18 00:34:17;;;;;;;0.00;0.00;;;24.90;41.90;;;;;;5054247;28;20036;-74
2022/07/18 00:36:44;;;;;;;0.00;0.00;;;25.10;40.10;;;;;;5047722;28;20064;-74
2022/07/18 00:39:10;;;;;;;0.00;0.00;;;25.70;41.10;;;;;;5037728;28;20128;-76
2022/07/18 00:41:36;;;;;;;0.00;0.00;;;26.30;39.70;;;;;;5030945;28;20114;-75
2022/07/18 00:44:03;;;;;;;0.00;0.00;;;27.00;37.90;;;;;;5029893;28;20026;-75
2022/07/18 00:46:29;;;;;;;0.00;0.00;;;27.70;36.40;;;;;;5034816;28;20029;-75
2022/07/18 00:48:56;;;;;;;0.00;0.00;;;28.30;36.70;;;;;;5052782;28;20116;-76
2022/07/18 00:51:22;;;;;;;0.20;0.20;;;28.70;35.00;;;;;;5048855;28;20495;-76
2022/07/18 00:53:49;;;;;;;0.00;0.00;;;29.20;35.20;;;;;;5017802;28;20038;-76
2022/07/18 00:56:18;;;;;;;0.00;0.00;;;29.20;35.30;;;;;;5029503;28;20033;-76
2022/07/18 00:58:45;;;;;;;0.00;0.00;;;29.40;35.00;;;;;;5055344;28;20021;-75
2022/07/18 01:03:56;;;;;;;0.00;0.00;;;29.90;34.40;;;;;;5054831;28;20100;-75
2022/07/18 01:06:22;;;;;;;1.08;1.08;;;30.70;33.10;;;;;;5035047;28;20029;-75
2022/07/18 01:08:48;;;;;;;0.00;0.00;;;31.10;33.30;;;;;;5038644;28;20534;-74
2022/07/18 01:11:15;;;;;;;0.00;0.00;;;31.70;32.30;;;;;;5052924;28;20060;-75
2022/07/18 01:13:42;;;;;;;0.20;0.20;;;31.80;32.00;;;;;;5055480;28;20059;-75
2022/07/18 01:16:08;;;;;;;0.10;0.10;;;32.10;31.20;;;;;;5044150;28;20025;-75
2022/07/18 01:18:34;;;;;;;0.00;0.00;;;32.40;31.10;;;;;;5027807;28;20099;-75
2022/07/18 01:21:00;;;;;;;0.00;0.00;;;32.40;31.20;;;;;;5039068;28;20037;-75
2022/07/18 01:23:26;;;;;;;0.00;0.00;;;32.50;30.80;;;;;;5019743;28;20032;-76
2022/07/18 01:25:52;;;;;;;0.00;0.00;;;32.90;29.30;;;;;;5026850;28;20057;-76
2022/07/18 01:28:19;;;;;;;0.00;0.00;;;33.00;29.20;;;;;;5031195;28;20056;-73
2022/07/18 01:30:45;;;;;;;0.00;0.00;;;32.90;29.80;;;;;;5020076;28;20034;-76
2022/07/18 01:33:11;;;;;;;2.63;2.30;;;32.30;30.80;;;;;;5026992;28;20052;-75
2022/07/18 01:35:37;;;;;;;0.10;0.10;;;31.80;30.70;;;;;;5058387;28;20479;-75
2022/07/18 01:38:04;;;;;;;0.00;0.00;;;31.60;31.50;;;;;;5067960;28;20044;-76
2022/07/18 01:40:31;;;;;;;0.00;0.00;;;31.60;31.00;;;;;;5072542;28;20029;-76
2022/07/18 01:42:57;;;;;;;0.00;0.00;;;31.70;31.10;;;;;;5056837;28;20020;-75
2022/07/18 01:45:23;;;;;;;12.40;4.25;;;31.50;30.80;;;;;;5055253;28;20482;-75
2022/07/18 01:47:49;;;;;;;0.00;0.00;;;31.40;31.80;;;;;;5046235;28;20111;-76
2022/07/18 01:50:15;;;;;;;52.15;24.52;;;30.20;33.50;;;;;;5054210;28;20029;-75
2022/07/18 01:52:42;;;;;;;0.47;0.47;;;30.40;33.00;;;;;;5063045;28;20049;-77
2022/07/18 01:55:09;;;;;;;0.00;0.00;;;30.90;31.50;;;;;;5036504;28;20052;-75
2022/07/18 01:57:36;;;;;;;0.52;0.52;;;31.10;31.20;;;;;;5036889;28;20060;-74
2022/07/18 02:00:04;;;;;;;0.00;0.00;;;31.70;30.30;;;;;;5044405;28;20087;-75
2022/07/18 02:02:30;;;;;;;0.60;0.60;;;32.10;29.80;;;;;;5046615;28;20026;-76
2022/07/18 02:04:59;;;;;;;2.63;2.53;;;32.80;29.40;;;;;;5045937;28;20041;-74
2022/07/18 02:07:27;;;;;;;0.00;0.00;;;32.70;29.60;;;;;;5042836;28;20017;-74
2022/07/18 02:09:53;;;;;;;0.00;0.00;;;33.60;28.80;;;;;;5043606;28;20083;-75
2022/07/18 02:12:19;;;;;;;0.00;0.00;;;34.30;28.10;;;;;;5041277;28;20040;-75
2022/07/18 02:14:45;;;;;;;0.00;0.00;;;34.70;27.70;;;;;;5042354;28;20552;-75
2022/07/18 02:17:11;;;;;;;0.00;0.00;;;35.20;27.20;;;;;;5023317;28;20557;-76
2022/07/18 02:19:37;;;;;;;0.30;0.30;;;35.30;27.20;;;;;;5040940;28;20104;-74
2022/07/18 02:22:04;;;;;;;0.00;0.00;;;35.70;26.80;;;;;;5049391;28;20430;-77
2022/07/18 02:24:30;;;;;;;0.00;0.00;;;36.30;26.40;;;;;;5043282;28;20052;-78
2022/07/18 02:26:56;;;;;;;0.77;0.65;;;36.60;26.30;;;;;;5042221;28;20068;-75
2022/07/18 02:29:22;;;;;;;0.00;0.00;;;34.70;27.90;;;;;;5022836;28;20060;-77
2022/07/18 02:31:48;;;;;;;0.30;0.30;;;33.40;29.20;;;;;;5022543;28;20438;-76
2022/07/18 02:34:14;;;;;;;0.00;0.00;;;33.00;28.60;;;;;;5043169;28;20029;-76
2022/07/18 02:36:42;;;;;;;5.82;5.57;;;33.90;28.30;;;;;;5043436;28;20128;-76
2022/07/18 02:39:09;;;;;;;0.00;0.00;;;33.80;28.70;;;;;;5044211;28;20024;-76
2022/07/18 02:41:36;;;;;;;0.00;0.00;;;32.90;29.80;;;;;;5041668;28;20058;-76
2022/07/18 02:44:04;;;;;;;0.20;0.20;;;32.50;30.50;;;;;;5043928;28;20037;-75
2022/07/18 02:46:30;;;;;;;0.00;0.00;;;33.00;29.80;;;;;;5043833;28;20120;-76
2022/07/18 02:48:56;;;;;;;0.00;0.00;;;33.50;29.30;;;;;;5038387;28;20033;-77
2022/07/18 02:51:22;;;;;;;0.00;0.00;;;33.20;29.30;;;;;;5043763;28;20100;-77
2022/07/18 02:53:48;;;;;;;0.00;0.00;;;34.90;28.00;;;;;;5042273;28;20027;-76
2022/07/18 02:56:17;;;;;;;7.78;0.98;;;35.60;27.50;;;;;;5043656;28;20021;-75
2022/07/18 02:58:46;;;;;;;0.00;0.00;;;34.20;28.40;;;;;;5021622;28;20100;-73
2022/07/18 03:01:12;;;;;;;0.00;0.00;;;34.40;29.00;;;;;;5022565;28;20021;-73
2022/07/18 03:03:38;;;;;;;0.00;0.00;;;33.60;29.50;;;;;;5042405;28;20017;-74
2022/07/18 03:06:04;;;;;;;0.10;0.00;;;33.20;30.00;;;;;;5041885;28;20024;-72
2022/07/18 03:08:30;;;;;;;0.00;0.00;;;33.30;29.80;;;;;;5040029;28;20033;-73
2022/07/18 03:10:56;;;;;;;0.20;0.10;;;32.90;30.50;;;;;;5040955;28;20030;-74
2022/07/18 03:13:22;;;;;;;2.15;2.05;;;32.70;30.80;;;;;;5041786;28;20024;-74
2022/07/18 03:15:48;;;;;;;0.00;0.00;;;32.70;30.60;;;;;;5022547;28;20044;-73
2022/07/18 03:18:15;;;;;;;1.45;0.25;;;33.30;30.20;;;;;;5040764;28;20028;-74
2022/07/18 03:20:41;;;;;;;0.00;0.00;;;33.40;29.70;;;;;;5023765;28;20031;-74
2022/07/18 03:23:08;;;;;;;0.00;0.00;;;33.60;28.80;;;;;;5026056;28;20104;-76
2022/07/18 03:25:35;;;;;;;0.00;0.00;;;33.00;29.80;;;;;;5041074;28;20020;-75
2022/07/18 03:28:04;;;;;;;0.00;0.00;;;33.50;29.60;;;;;;5039927;28;20030;-77
2022/07/18 03:30:30;;;;;;;0.10;0.10;;;34.50;29.00;;;;;;5023990;28;20079;-78
2022/07/18 03:32:56;;;;;;;0.22;0.17;;;35.80;28.00;;;;;;5039858;28;20427;-78
2022/07/18 03:35:22;;;;;;;0.00;0.00;;;35.60;27.70;;;;;;5039925;28;20037;-77
2022/07/18 03:37:48;;;;;;;0.00;0.00;;;36.30;27.00;;;;;;5022244;28;20074;-77
2022/07/18 03:40:14;;;;;;;0.03;0.03;;;34.80;28.30;;;;;;5040047;28;20022;-77
2022/07/18 03:42:40;;;;;;;0.00;0.00;;;34.50;28.50;;;;;;5024310;28;20033;-76
2022/07/18 03:45:08;;;;;;;0.63;0.35;;;34.20;28.80;;;;;;5041946;28;20013;-77
2022/07/18 03:47:35;;;;;;;0.60;0.32;;;34.20;29.30;;;;;;5040270;28;20022;-75
2022/07/18 03:50:01;;;;;;;0.00;0.00;;;33.60;29.90;;;;;;5031814;28;20116;-76
2022/07/18 03:52:27;;;;;;;0.00;0.00;;;33.20;30.20;;;;;;5040189;28;20025;-77
2022/07/18 03:54:53;;;;;;;0.00;0.00;;;33.90;29.60;;;;;;5020635;28;20017;-76
2022/07/18 03:57:19;;;;;;;0.10;0.10;;;32.60;30.70;;;;;;5026578;28;20090;-75
2022/07/18 03:59:46;;;;;;;0.00;0.00;;;32.60;31.20;;;;;;5044084;28;20021;-75
2022/07/18 04:02:11;;;;;;;0.00;0.00;;;32.80;30.60;;;;;;5022881;28;20021;-76
2022/07/18 04:04:38;;;;;;;0.10;0.00;;;32.00;32.10;;;;;;5037347;28;20348;-74
2022/07/18 04:07:04;;;;;;;0.15;0.15;;;32.40;31.30;;;;;;5042209;28;20096;-76
2022/07/18 04:09:30;;;;;;;0.28;0.28;;;32.10;32.80;;;;;;5046381;28;20068;-75
2022/07/18 04:11:56;;;;;;;14.02;1.65;;;31.60;33.50;;;;;;5040478;28;20039;-76
2022/07/18 04:14:25;;;;;;;0.03;0.03;;;31.50;34.00;;;;;;5021666;28;20379;-76
2022/07/18 04:16:51;;;;;;;0.10;0.05;;;31.20;33.80;;;;;;5036672;28;20546;-77
2022/07/18 04:19:17;;;;;;;0.00;0.00;;;30.70;34.10;;;;;;5038025;28;20021;-79
2022/07/18 04:21:44;;;;;;;0.10;0.10;;;30.90;33.80;;;;;;5046900;28;20018;-80
2022/07/18 04:24:10;;;;;;;0.00;0.00;;;31.00;33.80;;;;;;5059553;28;20040;-78
2022/07/18 04:26:36;;;;;;;0.45;0.28;;;30.60;35.20;;;;;;5035247;28;20385;-76
2022/07/18 04:29:03;;;;;;;13.40;0.57;;;30.60;34.80;;;;;;5042277;28;20048;-76
2022/07/18 04:31:29;;;;;;;3.70;0.50;;;30.90;34.90;;;;;;5042542;28;20017;-75
2022/07/18 04:33:55;;;;;;;0.00;0.00;;;30.60;35.10;;;;;;5042670;28;20037;-78
2022/07/18 04:36:37;;;;;;;0.00;0.00;;;30.70;35.30;;;;;;5042612;28;20041;-77
2022/07/18 04:39:04;;;;;;;0.00;0.00;;;30.90;34.60;;;;;;5017737;28;20116;-78
2022/07/18 04:41:30;;;;;;;1.67;1.67;;;30.50;34.20;;;;;;5018337;28;20420;-76
2022/07/18 04:43:56;;;;;;;0.00;0.00;;;30.80;34.50;;;;;;5028623;28;20143;-76
2022/07/18 04:46:22;;;;;;;0.45;0.45;;;31.00;33.80;;;;;;5053567;28;20036;-77
2022/07/18 04:48:48;;;;;;;0.00;0.00;;;31.00;34.30;;;;;;5021844;28;20033;-76
2022/07/18 04:51:14;;;;;;;0.20;0.15;;;31.10;34.40;;;;;;5046017;28;20036;-76
2022/07/18 04:53:40;;;;;;;0.00;0.00;;;30.80;34.20;;;;;;5036938;28;20480;-77
2022/07/18 04:56:06;;;;;;;0.20;0.20;;;31.20;33.50;;;;;;5037570;28;20033;-75
2022/07/18 04:58:32;;;;;;;0.00;0.00;;;30.90;35.50;;;;;;5039711;28;20033;-75
2022/07/18 05:00:58;;;;;;;1.48;0.47;;;31.00;34.00;;;;;;5046967;28;20048;-73
2022/07/18 05:03:27;;;;;;;0.08;0.08;;;31.00;34.10;;;;;;5036194;28;20022;-76
2022/07/18 05:05:53;;;;;;;0.00;0.00;;;31.00;33.90;;;;;;5042337;28;20104;-74
2022/07/18 05:08:20;;;;;;;0.10;0.10;;;30.70;35.10;;;;;;5040353;28;20774;-74
2022/07/18 05:10:46;;;;;;;0.00;0.00;;;30.70;36.40;;;;;;5019466;28;20033;-73
2022/07/18 05:13:12;;;;;;;0.00;0.00;;;30.40;36.60;;;;;;5023883;28;20120;-74
2022/07/18 05:15:38;;;;;;;0.00;0.00;;;30.40;36.20;;;;;;5023369;28;20029;-74
2022/07/18 05:18:04;;;;;;;0.00;0.00;;;30.60;35.90;;;;;;5039340;28;20111;-76
2022/07/18 05:20:30;;;;;;;0.00;0.00;;;31.00;35.50;;;;;;5040166;28;20555;-76
2022/07/18 05:22:56;;;;;;;0.22;0.22;;;30.80;35.70;;;;;;5029010;28;20036;-76
2022/07/18 05:25:23;;;;;;;0.00;0.00;;;30.80;35.10;;;;;;5043197;28;20025;-77
2022/07/18 05:27:50;;;;;;;0.00;0.00;;;30.60;35.20;;;;;;5025799;28;20074;-76
2022/07/18 05:30:16;;;;;;;0.10;0.10;;;30.90;36.20;;;;;;5046890;28;20025;-76
2022/07/18 05:32:44;;;;;;;0.65;0.65;;;31.00;36.10;;;;;;5045918;28;20188;-77
2022/07/18 05:35:11;;;;;;;0.00;0.00;;;30.90;35.30;;;;;;5025967;28;20029;-76
2022/07/18 05:37:38;;;;;;;0.10;0.10;;;30.60;35.60;;;;;;5049024;28;20017;-75
2022/07/18 05:40:06;;;;;;;0.00;0.00;;;30.50;36.80;;;;;;5049293;28;20013;-76
2022/07/18 05:42:33;;;;;;;0.00;0.00;;;30.40;36.20;;;;;;5042648;28;20089;-76
2022/07/18 05:44:59;;;;;;;0.00;0.00;;;30.70;36.10;;;;;;5040049;28;20021;-75
2022/07/18 05:47:25;;;;;;;0.00;0.00;;;30.30;36.00;;;;;;5039157;28;20151;-75
2022/07/18 05:49:51;;;;;;;0.13;0.13;;;30.30;36.20;;;;;;5024717;28;20029;-75
2022/07/18 05:52:17;;;;;;;0.00;0.00;;;30.20;36.10;;;;;;5023550;28;20044;-75
2022/07/18 05:54:43;;;;;;;0.00;0.00;;;30.40;37.00;;;;;;5025940;28;20112;-76
2022/07/18 05:57:09;;;;;;;0.00;0.00;;;30.40;36.80;;;;;;5022941;28;20167;-77
2022/07/18 05:59:35;;;;;;;0.00;0.00;;;30.70;37.20;;;;;;5047475;28;20022;-77
2022/07/18 06:02:01;;;;;;;0.20;0.20;;;30.70;36.20;;;;;;5024101;28;20041;-77
2022/07/18 06:04:27;;;;;;;0.00;0.00;;;30.80;35.10;;;;;;5030717;28;20033;-81
2022/07/18 06:06:53;;;;;;;0.00;0.00;;;31.10;34.90;;;;;;5023161;28;20029;-77
2022/07/18 06:09:19;;;;;;;0.20;0.10;;;31.20;35.40;;;;;;5053350;28;20030;-77
2022/07/18 06:11:45;;;;;;;0.05;0.05;;;30.80;36.20;;;;;;5038160;28;20024;-78
2022/07/18 06:14:20;;;;;;;0.00;0.00;;;30.70;36.50;;;;;;5024269;28;20047;-80
2022/07/18 06:16:46;;;;;;;0.52;0.43;;;30.50;36.40;;;;;;5043833;28;20047;-78
2022/07/18 06:19:12;;;;;;;0.52;0.52;;;30.60;36.70;;;;;;5042440;28;20474;-77
2022/07/18 06:21:38;;;;;;;1.75;0.57;;;30.80;35.50;;;;;;5022146;28;20032;-75
2022/07/18 06:24:05;;;;;;;0.00;0.00;;;30.90;36.00;;;;;;5038084;28;20024;-74
2022/07/18 06:26:31;;;;;;;0.30;0.13;;;30.60;35.70;;;;;;5044446;28;20052;-76
2022/07/18 06:28:57;;;;;;;0.00;0.00;;;30.80;36.00;;;;;;5023759;28;20033;-76
2022/07/18 06:31:23;;;;;;;0.00;0.00;;;30.90;35.50;;;;;;5040863;28;20044;-75
2022/07/18 06:33:49;;;;;;;0.00;0.00;;;31.20;35.70;;;;;;5040212;28;20538;-77
2022/07/18 06:36:17;;;;;;;0.00;0.00;;;31.20;35.00;;;;;;5022497;28;20054;-77
2022/07/18 06:38:44;;;;;;;0.08;0.08;;;31.30;35.50;;;;;;5008253;28;20421;-76
2022/07/18 06:41:10;;;;;;;0.00;0.00;;;31.10;34.30;;;;;;5012987;28;20021;-77
2022/07/18 06:43:41;;;;;;;0.00;0.00;;;31.50;34.10;;;;;;5010691;28;20049;-77
2022/07/18 06:46:07;;;;;;;0.00;0.00;;;31.20;33.30;;;;;;5011626;28;20033;-75
2022/07/18 06:48:34;;;;;;;0.00;0.00;;;31.20;35.30;;;;;;5010176;28;20041;-77
2022/07/18 06:51:05;;;;;;;0.32;0.32;;;31.20;34.30;;;;;;5007875;28;20041;-74
2022/07/18 06:53:32;;;;;;;0.10;0.10;;;31.20;34.70;;;;;;5004875;28;20083;-76
2022/07/18 06:55:58;;;;;;;15.40;2.10;;;31.20;34.90;;;;;;5007000;28;20033;-75
2022/07/18 06:58:24;;;;;;;0.00;0.00;;;31.30;33.60;;;;;;5006607;28;20028;-76
2022/07/18 07:00:51;;;;;;;0.08;0.08;;;31.30;34.00;;;;;;5009928;28;20613;-75
2022/07/18 07:03:17;;;;;;;0.00;0.00;;;31.40;34.40;;;;;;5021907;28;20153;-73
2022/07/18 07:05:43;;;;;;;0.00;0.00;;;31.50;34.40;;;;;;5012220;28;20050;-73
2022/07/18 07:08:09;;;;;;;0.10;0.10;;;31.80;33.20;;;;;;5001429;28;20030;-73
2022/07/18 07:10:38;;;;;;;0.25;0.20;;;32.00;32.90;;;;;;5007546;28;20561;-75
2022/07/18 07:13:04;;;;;;;0.47;0.22;;;31.90;34.40;;;;;;5022084;28;20473;-74
2022/07/18 07:15:30;;;;;;;3.60;1.30;;;31.20;35.10;;;;;;5008279;28;20480;-75
2022/07/18 07:17:56;;;;;;;0.20;0.20;;;31.10;35.90;;;;;;5003912;28;20416;-75
2022/07/18 07:20:22;;;;;;;45.30;20.13;;;31.20;34.80;;;;;;5007787;28;20033;-75
2022/07/18 07:22:51;;;;;;;0.28;0.10;;;31.30;34.80;;;;;;5004958;28;20401;-76
2022/07/18 07:25:18;;;;;;;0.00;0.00;;;31.50;34.70;;;;;;5008405;28;20056;-75
2022/07/18 07:27:45;;;;;;;0.25;0.20;;;31.80;34.10;;;;;;5010319;28;20022;-75
2022/07/18 07:30:13;;;;;;;0.00;0.00;;;31.90;33.80;;;;;;5014233;28;20049;-74
2022/07/18 07:32:44;;;;;;;0.00;0.00;;;32.10;33.30;;;;;;5009375;28;20056;-74
2022/07/18 07:35:12;;;;;;;0.00;0.00;;;32.20;33.20;;;;;;5007185;28;20029;-74
2022/07/18 07:37:43;;;;;;;0.03;0.00;;;32.40;33.50;;;;;;5025320;28;20034;-75
2022/07/18 07:40:10;;;;;;;0.40;0.30;;;31.90;34.90;;;;;;5019578;28;20487;-74
2022/07/18 07:42:36;;;;;;;1.27;0.95;;;32.10;34.70;;;;;;5023568;28;20040;-75
2022/07/18 07:45:04;;;;;;;5.25;3.28;;;31.80;34.70;;;;;;5040412;28;20379;-75
2022/07/18 07:47:30;;;;;;;0.20;0.13;;;31.70;34.50;;;;;;5027138;28;20021;-75
2022/07/18 07:49:57;;;;;;;0.80;0.80;;;31.50;35.10;;;;;;5037986;28;20492;-74
2022/07/18 07:52:23;;;;;;;1.48;0.17;;;31.30;35.70;;;;;;5021646;28;20530;-75
2022/07/18 07:54:52;;;;;;;2.03;0.75;;;31.60;34.90;;;;;;5019127;28;20579;-77
2022/07/18 07:57:21;;;;;;;11.10;0.43;;;31.70;34.50;;;;;;5040068;28;20068;-74
2022/07/18 07:59:47;;;;;;;0.00;0.00;;;32.00;35.00;;;;;;5021064;28;20049;-75
2022/07/18 08:02:18;;;;;;;0.10;0.10;;;32.00;34.70;;;;;;5041315;28;20017;-75
2022/07/18 08:04:44;;;;;;;0.00;0.00;;;32.20;33.30;;;;;;5042263;28;20028;-75
2022/07/18 08:07:11;;;;;;;0.08;0.08;;;32.30;32.80;;;;;;5037075;28;20476;-75
2022/07/18 08:09:38;;;;;;;0.00;0.00;;;32.70;33.70;;;;;;5019947;28;20373;-75
2022/07/18 08:12:04;;;;;;;0.00;0.00;;;33.00;32.80;;;;;;5035698;28;20033;-74
2022/07/18 08:14:33;;;;;;;0.00;0.00;;;33.20;32.50;;;;;;5019501;28;20127;-76
2022/07/18 08:16:59;;;;;;;0.00;0.00;;;33.00;32.60;;;;;;5036840;28;20060;-75
2022/07/18 08:19:25;;;;;;;0.35;0.35;;;33.20;32.40;;;;;;5025628;28;20045;-75
2022/07/18 08:21:52;;;;;;;0.00;0.00;;;33.00;32.70;;;;;;5044424;28;20044;-75
2022/07/18 08:24:18;;;;;;;0.00;0.00;;;33.20;33.00;;;;;;5026977;28;20079;-74
2022/07/18 08:26:44;;;;;;;0.00;0.00;;;33.30;33.30;;;;;;5032103;28;20108;-75
2022/07/18 08:29:11;;;;;;;0.00;0.00;;;32.50;33.50;;;;;;5038983;28;20119;-75
2022/07/18 08:31:37;;;;;;;0.00;0.00;;;32.50;34.00;;;;;;5062524;28;20024;-74
2022/07/18 08:34:03;;;;;;;3.92;0.70;;;32.60;33.40;;;;;;5054131;28;20060;-75
2022/07/18 08:36:29;;;;;;;0.20;0.10;;;32.50;33.60;;;;;;5050375;28;20438;-74
2022/07/18 08:38:55;;;;;;;0.00;0.00;;;32.20;33.00;;;;;;5046302;28;20021;-73
2022/07/18 08:41:24;;;;;;;0.00;0.00;;;32.30;33.30;;;;;;5049379;28;20024;-73
2022/07/18 08:43:51;;;;;;;0.00;0.00;;;32.50;33.60;;;;;;5044431;28;20032;-73
2022/07/18 08:46:21;;;;;;;0.00;0.00;;;32.90;32.90;;;;;;5023951;28;20511;-75
2022/07/18 08:48:48;;;;;;;0.10;0.10;;;33.30;32.40;;;;;;5042506;28;20029;-74
2022/07/18 08:51:15;;;;;;;0.15;0.15;;;33.00;33.20;;;;;;5040909;28;20036;-75
2022/07/18 08:53:41;;;;;;;0.00;0.00;;;32.90;33.80;;;;;;5024814;28;20063;-73
2022/07/18 08:56:07;;;;;;;0.65;0.10;;;32.40;34.20;;;;;;5028805;28;20696;-74
2022/07/18 08:58:34;;;;;;;0.50;0.40;;;32.70;34.70;;;;;;5048103;28;20060;-74
2022/07/18 09:01:00;;;;;;;0.00;0.00;;;32.70;33.70;;;;;;5022309;28;20467;-72
2022/07/18 09:03:26;;;;;;;0.00;0.00;;;32.60;34.20;;;;;;5041317;28;20041;-73
2022/07/18 09:06:12;;;;;;;0.00;0.00;;;33.00;33.80;;;;;;5041693;28;20484;-75
2022/07/18 09:09:01;;;;;;;0.17;0.10;;;33.30;33.00;;;;;;5022801;28;20066;-74
2022/07/18 09:11:27;;;;;;;2.63;0.55;;;33.20;32.00;;;;;;5026255;28;20021;-74
2022/07/18 09:13:53;;;;;;;0.08;0.08;;;33.00;32.30;;;;;;5020673;28;20140;-74
2022/07/18 09:16:21;;;;;;;0.00;0.00;;;33.00;32.50;;;;;;5039388;28;20088;-76
2022/07/18 09:18:48;;;;;;;0.00;0.00;;;33.10;32.20;;;;;;5042745;28;20131;-76
2022/07/18 09:21:23;;;;;;;0.20;0.20;;;33.10;32.00;;;;;;5033850;28;20017;-74
2022/07/18 09:23:55;;;;;;;0.20;0.20;;;33.10;32.10;;;;;;5053764;28;20024;-77
2022/07/18 09:26:41;;;;;;;0.10;0.10;;;33.00;32.20;;;;;;5023958;28;20037;-77
2022/07/18 09:29:08;;;;;;;0.10;0.00;;;33.00;31.90;;;;;;5021187;28;20033;-77
2022/07/18 09:31:34;;;;;;;0.10;0.10;;;33.20;31.80;;;;;;5039363;28;20434;-77
2022/07/18 09:34:02;;;;;;;0.00;0.00;;;33.30;32.60;;;;;;5045401;28;20056;-76
2022/07/18 09:36:29;;;;;;;0.00;0.00;;;33.40;32.20;;;;;;5042990;28;20080;-77
2022/07/18 09:38:55;;;;;;;0.00;0.00;;;33.60;31.70;;;;;;5043312;28;20029;-77
2022/07/18 09:41:23;;;;;;;0.43;0.43;;;33.80;31.70;;;;;;5059179;28;20115;-73
2022/07/18 09:43:49;;;;;;;1.40;0.25;;;33.80;31.90;;;;;;5048750;28;20432;-74
2022/07/18 09:46:15;;;;;;;0.25;0.25;;;33.80;31.40;;;;;;5045411;28;20037;-74
2022/07/18 09:48:41;;;;;;;0.00;0.00;;;33.60;31.40;;;;;;5026428;28;20060;-73
2022/07/18 09:51:09;;;;;;;0.00;0.00;;;33.60;31.10;;;;;;5026909;28;20771;-75
2022/07/18 09:53:35;;;;;;;0.00;0.00;;;33.80;31.30;;;;;;5036069;28;20025;-74
2022/07/18 09:56:04;;;;;;;0.00;0.00;;;33.80;31.40;;;;;;5038421;28;20116;-73
2022/07/18 09:58:36;;;;;;;0.00;0.00;;;33.70;31.60;;;;;;5045161;28;20025;-74
2022/07/18 10:01:05;;;;;;;0.08;0.08;;;33.80;31.40;;;;;;5023612;28;20024;-75
2022/07/18 10:03:31;;;;;;;0.00;0.00;;;33.60;31.40;;;;;;5040610;28;20021;-75
2022/07/18 10:05:59;;;;;;;0.00;0.00;;;33.40;32.20;;;;;;5045372;28;20048;-76
2022/07/18 10:08:30;;;;;;;0.05;0.05;;;33.60;31.90;;;;;;5043512;28;20427;-75
2022/07/18 10:10:59;;;;;;;0.05;0.05;;;33.70;32.00;;;;;;5047373;28;20056;-76
2022/07/18 10:13:29;;;;;;;0.40;0.40;;;33.50;31.90;;;;;;5025424;28;20480;-76
2022/07/18 10:15:55;;;;;;;0.00;0.00;;;33.30;32.60;;;;;;5020608;28;20053;-77
2022/07/18 10:18:28;;;;;;;0.00;0.00;;;33.00;33.10;;;;;;5041145;28;20446;-79
2022/07/18 10:21:02;;;;;;;0.00;0.00;;;33.30;32.50;;;;;;5041791;28;20044;-77
2022/07/18 10:23:40;;;;;;;0.10;0.10;;;33.30;32.30;;;;;;5039979;28;20475;-75
2022/07/18 10:26:18;;;;;;;0.80;0.80;;;33.50;32.40;;;;;;5043277;28;20530;-77
2022/07/18 10:28:59;;;;;;;0.00;0.00;;;33.30;32.40;;;;;;5022614;28;20040;-76
2022/07/18 10:31:38;;;;;;;0.00;0.00;;;33.00;33.30;;;;;;5037890;28;20485;-76
2022/07/18 10:34:07;;;;;;;0.00;0.00;;;32.70;33.00;;;;;;5049378;28;20023;-78
2022/07/18 10:36:43;;;;;;;0.00;0.00;;;32.80;32.90;;;;;;5039644;28;20041;-80
2022/07/18 10:39:23;;;;;;;1.25;0.38;;;32.70;33.30;;;;;;5042131;28;20021;-79
2022/07/18 10:41:53;;;;;;;0.10;0.10;;;32.60;33.70;;;;;;5058102;28;20021;-80
2022/07/18 10:44:25;;;;;;;0.00;0.00;;;32.60;34.00;;;;;;5046290;28;20021;-79
2022/07/18 10:47:20;;;;;;;0.10;0.10;;;32.70;34.00;;;;;;5052042;28;20102;-77
2022/07/18 10:49:46;;;;;;;0.08;0.08;;;32.60;33.70;;;;;;5030057;28;20095;-78
2022/07/18 10:52:32;;;;;;;0.20;0.20;;;32.50;34.40;;;;;;5049816;28;20029;-78
2022/07/18 10:55:04;;;;;;;0.00;0.00;;;32.50;34.50;;;;;;5058512;28;20417;-77
2022/07/18 10:57:35;;;;;;;0.00;0.00;;;32.50;34.80;;;;;;5033102;28;20029;-77
2022/07/18 11:00:08;;;;;;;0.00;0.00;;;32.50;34.70;;;;;;5029439;28;20029;-77
2022/07/18 11:02:42;;;;;;;0.45;0.45;;;32.50;35.00;;;;;;5041057;28;20017;-78
2022/07/18 11:05:26;;;;;;;0.00;0.00;;;32.70;34.60;;;;;;5043229;28;20030;-76
2022/07/18 11:07:58;;;;;;;0.10;0.10;;;32.60;34.20;;;;;;5039743;28;20028;-77
2022/07/18 11:10:47;;;;;;;0.00;0.00;;;32.60;35.00;;;;;;5020228;28;20021;-77
2022/07/18 11:13:31;;;;;;;0.00;0.00;;;32.70;33.80;;;;;;5049114;28;20013;-77
2022/07/18 11:16:16;;;;;;;0.00;0.00;;;32.60;33.50;;;;;;5042118;28;20098;-77
2022/07/18 11:19:02;;;;;;;0.00;0.00;;;32.70;33.50;;;;;;5041531;28;20036;-77
2022/07/18 11:21:33;;;;;;;0.00;0.00;;;32.50;33.30;;;;;;5043247;28;20025;-77
2022/07/18 11:24:06;;;;;;;0.00;0.00;;;32.60;34.00;;;;;;5020615;28;20427;-78
2022/07/18 11:26:33;;;;;;;0.00;0.00;;;32.70;34.50;;;;;;5036529;28;20383;-78
2022/07/18 11:29:05;;;;;;;0.00;0.00;;;32.80;33.90;;;;;;5051004;28;20415;-77
2022/07/18 11:31:42;;;;;;;1.23;1.15;;;32.50;34.90;;;;;;5033535;28;20100;-77
2022/07/18 11:34:08;;;;;;;0.00;0.00;;;32.40;35.50;;;;;;5045871;28;20591;-78
2022/07/18 11:36:35;;;;;;;0.08;0.08;;;32.30;35.40;;;;;;5024873;28;20046;-78
2022/07/18 11:39:03;;;;;;;0.00;0.00;;;32.30;36.10;;;;;;5024235;28;20052;-82
2022/07/18 11:41:29;;;;;;;0.00;0.00;;;32.30;35.70;;;;;;5048095;28;20105;-81
2022/07/18 11:43:56;;;;;;;0.35;0.35;;;32.10;35.90;;;;;;5035976;28;20065;-82
2022/07/18 11:46:27;;;;;;;0.55;0.47;;;32.00;35.60;;;;;;5037268;28;20025;-81
2022/07/18 11:49:04;;;;;;;0.00;0.00;;;32.10;35.60;;;;;;5039374;28;20022;-77
2022/07/18 11:51:41;;;;;;;0.20;0.17;;;32.20;35.80;;;;;;5041106;28;20535;-77
2022/07/18 11:54:07;;;;;;;0.00;0.00;;;32.30;35.40;;;;;;5046735;28;20691;-75
2022/07/18 11:56:49;;;;;;;0.00;0.00;;;32.20;35.60;;;;;;5048967;28;20396;-76
2022/07/18 11:59:15;;;;;;;0.00;0.00;;;32.00;35.80;;;;;;5044766;28;20026;-78
2022/07/18 12:01:44;;;;;;;0.00;0.00;;;31.90;36.10;;;;;;5019990;28;20027;-76
2022/07/18 12:04:21;;;;;;;0.10;0.00;;;31.90;36.20;;;;;;5051293;28;20071;-78
2022/07/18 12:07:12;;;;;;;0.00;0.00;;;31.90;36.20;;;;;;5053756;28;20052;-77
2022/07/18 12:09:38;;;;;;;0.10;0.10;;;32.00;35.90;;;;;;5024511;28;20026;-74
2022/07/18 12:12:09;;;;;;;0.00;0.00;;;31.90;36.10;;;;;;5042495;28;20028;-74
2022/07/18 12:14:35;;;;;;;0.00;0.00;;;31.90;35.60;;;;;;5031172;28;20045;-74
2022/07/18 12:17:01;;;;;;;0.00;0.00;;;31.80;35.50;;;;;;5044078;28;20029;-75
2022/07/18 12:19:36;;;;;;;0.00;0.00;;;31.80;35.30;;;;;;5027924;28;20017;-75
2022/07/18 12:22:12;;;;;;;0.00;0.00;;;31.70;35.40;;;;;;5026247;28;20033;-75
2022/07/18 12:24:52;;;;;;;0.00;0.00;;;31.80;35.90;;;;;;5043081;28;20017;-74
2022/07/18 12:27:22;;;;;;;0.10;0.10;;;31.80;36.50;;;;;;5030330;28;20071;-74
2022/07/18 12:30:08;;;;;;;0.00;0.00;;;31.80;36.20;;;;;;5043867;28;20420;-73
2022/07/18 12:32:44;;;;;;;0.00;0.00;;;31.70;36.70;;;;;;5036995;28;20040;-72
2022/07/18 12:35:17;;;;;;;0.00;0.00;;;31.70;36.80;;;;;;5055703;28;20391;-72
2022/07/18 12:38:04;;;;;;;0.00;0.00;;;31.60;36.70;;;;;;5048881;28;20037;-72
2022/07/18 12:40:53;;;;;;;0.00;0.00;;;31.50;36.30;;;;;;5019346;28;20025;-72
2022/07/18 12:43:37;;;;;;;0.00;0.00;;;31.70;36.80;;;;;;5025312;28;20025;-73
2022/07/18 12:46:07;;;;;;;0.00;0.00;;;31.70;36.90;;;;;;5043368;28;20051;-72
2022/07/18 12:48:34;;;;;;;0.00;0.00;;;31.70;36.60;;;;;;5055726;28;20032;-72
2022/07/18 12:51:05;;;;;;;0.00;0.00;;;31.70;36.60;;;;;;5044723;28;20073;-72
2022/07/18 12:53:33;;;;;;;0.00;0.00;;;31.70;36.80;;;;;;5051880;28;20064;-72